Time;durP1;ratioP1;P1;durP2;ratioP2;P2;SDS_P1;SDS_P2;PMS_P1;PMS_P2;Temp;Humidity;BMP_temperature;BMP_pressure;BME280_temperature;BME280_humidity;BME280_pressure;Samples;Min_cycle;Max_cycle;Signal;HPM_P1;HPM_P2
2022/04/13 00:00:35;;;;;;;127.50;55.90;;;;;;;2.19;60.49;99134.91;108032;1277;25323;-75
2022/04/13 00:03:02;;;;;;;137.80;60.10;;;;;;;2.15;60.28;99135.15;108048;1278;22761;-75
2022/04/13 00:05:29;;;;;;;141.20;60.80;;;;;;;2.12;60.13;99135.92;108045;1277;25463;-75
2022/04/13 00:07:56;;;;;;;124.60;57.10;;;;;;;2.09;60.09;99135.99;107991;1278;23080;-75
2022/04/13 00:10:23;;;;;;;123.50;52.50;;;;;;;2.06;59.84;99135.70;108008;1277;23497;-75
2022/04/13 00:12:50;;;;;;;111.30;44.60;;;;;;;2.03;59.99;99133.73;108035;1278;22563;-75
2022/04/13 00:15:17;;;;;;;99.70;42.70;;;;;;;2.01;59.81;99130.67;108053;1277;22722;-75
2022/04/13 00:17:44;;;;;;;76.60;36.40;;;;;;;1.99;59.71;99132.44;108005;1278;22673;-75
2022/04/13 00:20:12;;;;;;;76.90;35.10;;;;;;;2.02;60.09;99130.32;107997;1278;22746;-76
2022/04/13 00:22:39;;;;;;;68.50;33.40;;;;;;;2.06;60.82;99130.24;108060;1277;25428;-75
2022/04/13 00:25:07;;;;;;;72.50;33.70;;;;;;;2.07;61.82;99127.27;108009;1277;23121;-75
2022/04/13 00:27:34;;;;;;;84.70;37.70;;;;;;;2.04;61.79;99127.69;108041;1278;22561;-75
2022/04/13 00:30:01;;;;;;;74.70;38.80;;;;;;;2.02;61.58;99123.95;108005;1278;22551;-75
2022/04/13 00:32:28;;;;;;;76.40;37.10;;;;;;;2.00;61.59;99127.27;108034;1279;22583;-75
2022/04/13 00:34:57;;;;;;;76.40;35.80;;;;;;;1.98;61.13;99134.34;108014;1278;22868;-75
2022/04/13 00:37:24;;;;;;;78.20;36.90;;;;;;;1.95;61.18;99133.39;108053;1278;22555;-75
2022/04/13 00:39:51;;;;;;;69.60;33.50;;;;;;;1.92;60.99;99127.45;108024;1277;22671;-75
2022/04/13 00:42:18;;;;;;;67.40;32.10;;;;;;;1.90;60.93;99128.86;108001;1278;22702;-75
2022/04/13 00:44:45;;;;;;;58.70;31.30;;;;;;;1.90;60.97;99134.54;108025;1278;22537;-76
2022/04/13 00:47:13;;;;;;;64.40;33.80;;;;;;;1.89;60.75;99132.48;108027;1277;22662;-75
2022/04/13 00:49:40;;;;;;;70.10;32.40;;;;;;;1.88;60.79;99134.21;108059;1278;22595;-76
2022/04/13 00:52:11;;;;;;;63.30;31.90;;;;;;;1.92;60.99;99127.79;108043;1278;22618;-75
2022/04/13 00:54:42;;;;;;;57.10;29.30;;;;;;;1.96;61.91;99126.69;108070;1276;23439;-76
2022/04/13 00:57:11;;;;;;;65.90;30.40;;;;;;;1.99;62.62;99120.23;108012;1277;22541;-76
2022/04/13 00:59:39;;;;;;;72.10;32.90;;;;;;;2.00;62.51;99119.19;108187;1278;22567;-75
2022/04/13 01:02:08;;;;;;;74.80;34.80;;;;;;;1.99;62.30;99109.58;108063;1278;25579;-75
2022/04/13 01:04:36;;;;;;;76.80;32.80;;;;;;;2.00;62.17;99107.69;108066;1277;22668;-75
2022/04/13 01:07:07;;;;;;;79.80;34.80;;;;;;;2.01;62.13;99108.18;107986;1277;22543;-76
2022/04/13 01:09:36;;;;;;;72.40;33.20;;;;;;;2.02;62.09;99105.40;108013;1278;22888;-75
2022/04/13 01:12:04;;;;;;;66.70;30.40;;;;;;;2.04;62.24;99106.57;108030;1277;22570;-75
2022/04/13 01:14:31;;;;;;;67.10;32.20;;;;;;;2.06;62.24;99106.68;108049;1278;22735;-75
2022/04/13 01:17:00;;;;;;;77.40;35.20;;;;;;;2.07;62.13;99103.39;108122;1278;22654;-75
2022/04/13 01:19:28;;;;;;;82.60;35.10;;;;;;;2.06;61.90;99103.59;108268;1278;22541;-75
2022/04/13 01:22:01;;;;;;;80.40;34.60;;;;;;;2.05;61.77;99102.76;108241;1277;25272;-75
2022/04/13 01:24:29;;;;;;;;;;;;;;;2.06;61.72;99106.18;108298;1278;22547;-75
2022/04/13 01:26:56;;;;;;;83.40;34.10;;;;;;;2.03;61.65;99098.86;108270;1278;22549;-75
2022/04/13 01:29:23;;;;;;;65.60;28.90;;;;;;;2.00;61.38;99098.23;108259;1279;25323;-75
2022/04/13 01:31:53;;;;;;;56.80;26.40;;;;;;;2.04;61.81;99099.53;108269;1278;22721;-75
2022/04/13 01:34:21;;;;;;;64.00;28.80;;;;;;;2.07;62.49;99101.68;108291;1278;24241;-75
2022/04/13 01:36:48;;;;;;;63.20;30.20;;;;;;;2.06;63.01;99097.91;108276;1278;26033;-76
2022/04/13 01:39:15;;;;;;;70.40;31.60;;;;;;;2.03;62.95;99098.17;108272;1277;22563;-75
2022/04/13 01:41:42;;;;;;;78.70;31.80;;;;;;;1.97;62.73;99097.95;108283;1279;22703;-75
2022/04/13 01:44:09;;;;;;;72.10;30.50;;;;;;;1.91;62.71;99100.33;108297;1277;22562;-76
2022/04/13 01:46:36;;;;;;;80.00;31.20;;;;;;;1.85;62.83;99103.56;108292;1278;22557;-76
2022/04/13 01:49:03;;;;;;;71.90;30.60;;;;;;;1.80;62.42;99110.02;108276;1278;22559;-75
2022/04/13 01:51:30;;;;;;;72.50;33.60;;;;;;;1.73;62.18;99114.11;108268;1278;22552;-75
2022/04/13 01:53:58;;;;;;;84.30;34.90;;;;;;;1.66;62.00;99112.90;108301;1278;25378;-75
2022/04/13 01:56:25;;;;;;;86.20;35.80;;;;;;;1.60;61.74;99111.49;108283;1277;22552;-75
2022/04/13 01:58:52;;;;;;;84.60;36.30;;;;;;;1.54;61.65;99110.77;108127;1278;248213;-75
2022/04/13 02:01:19;;;;;;;82.00;33.60;;;;;;;1.49;61.95;99112.60;108284;1278;22563;-75
2022/04/13 02:03:48;;;;;;;70.70;33.00;;;;;;;1.46;62.19;99117.96;108259;1277;22548;-75
2022/04/13 02:06:15;;;;;;;69.70;32.40;;;;;;;1.44;62.96;99118.02;108304;1279;22535;-76
2022/04/13 02:08:42;;;;;;;66.20;30.30;;;;;;;1.41;63.67;99120.14;108310;1278;22553;-76
2022/04/13 02:11:10;;;;;;;67.70;31.30;;;;;;;1.36;63.74;99127.44;108300;1278;22619;-76
2022/04/13 02:13:39;;;;;;;67.90;31.10;;;;;;;1.32;63.55;99130.11;108273;1279;22563;-76
2022/04/13 02:16:08;;;;;;;61.50;30.10;;;;;;;1.28;63.58;99130.53;108277;1278;22541;-77
2022/04/13 02:18:35;;;;;;;60.90;31.00;;;;;;;1.24;63.17;99129.58;108271;1278;22592;-77
2022/04/13 02:21:02;;;;;;;68.20;30.30;;;;;;;1.18;63.34;99126.60;108288;1278;26640;-76
2022/04/13 02:23:29;;;;;;;63.40;29.50;;;;;;;1.13;63.06;99132.54;108287;1278;22632;-76
2022/04/13 02:25:56;;;;;;;64.00;29.50;;;;;;;1.07;63.15;99138.13;108275;1277;22606;-76
2022/04/13 02:28:23;;;;;;;57.00;29.30;;;;;;;1.02;63.28;99138.06;108308;1278;22560;-76
2022/04/13 02:30:50;;;;;;;70.20;29.80;;;;;;;0.98;63.07;99137.63;108282;1278;22552;-76
2022/04/13 02:33:18;;;;;;;58.30;29.40;;;;;;;0.96;62.83;99137.16;108266;1277;22555;-76
2022/04/13 02:35:45;;;;;;;65.40;29.60;;;;;;;0.99;63.19;99140.50;108290;1278;23179;-76
2022/04/13 02:38:12;;;;;;;59.90;27.70;;;;;;;1.02;64.18;99137.89;108292;1278;22585;-76
2022/04/13 02:40:39;;;;;;;49.60;24.80;;;;;;;1.05;64.95;99140.23;108264;1277;22563;-76
2022/04/13 02:43:06;;;;;;;65.50;29.20;;;;;;;1.04;64.78;99136.83;108318;1278;22735;-77
2022/04/13 02:45:34;;;;;;;62.50;27.70;;;;;;;1.01;64.73;99138.23;108272;1278;22563;-76
2022/04/13 02:48:02;;;;;;;57.30;29.00;;;;;;;0.97;64.60;99136.11;108281;1278;25421;-76
2022/04/13 02:50:29;;;;;;;54.60;26.50;;;;;;;0.93;64.36;99135.66;108259;1278;22562;-76
2022/04/13 02:52:56;;;;;;;62.90;28.80;;;;;;;0.89;64.19;99131.46;108290;1279;22544;-76
2022/04/13 02:55:23;;;;;;;65.50;31.50;;;;;;;0.85;64.16;99131.17;108326;1277;26628;-75
2022/04/13 02:57:51;;;;;;;68.40;31.50;;;;;;;0.81;64.30;99131.42;108310;1277;22635;-75
2022/04/13 03:00:19;;;;;;;65.90;31.70;;;;;;;0.77;64.03;99130.64;108279;1278;24303;-75
2022/04/13 03:02:46;;;;;;;66.30;30.70;;;;;;;0.72;63.93;99133.95;108270;1277;22554;-75
2022/04/13 03:05:13;;;;;;;60.20;31.40;;;;;;;0.73;63.82;99131.04;108290;1277;22741;-75
2022/04/13 03:07:40;;;;;;;56.50;29.80;;;;;;;0.71;64.60;99132.79;108298;1278;22549;-76
2022/04/13 03:10:08;;;;;;;60.90;26.80;;;;;;;0.70;65.33;99137.10;108273;1278;22695;-76
2022/04/13 03:12:36;;;;;;;62.70;29.30;;;;;;;0.68;65.56;99132.16;108318;1278;22664;-75
2022/04/13 03:15:07;;;;;;;60.00;29.20;;;;;;;0.69;65.31;99128.55;108290;1278;24295;-76
2022/04/13 03:17:34;;;;;;;67.90;31.60;;;;;;;0.72;65.13;99127.80;108269;1278;22552;-76
2022/04/13 03:20:01;;;;;;;62.10;30.30;;;;;;;0.73;65.30;99128.13;108271;1278;22560;-76
2022/04/13 03:22:29;;;;;;;71.80;34.70;;;;;;;0.72;65.13;99129.51;108285;1279;22616;-76
2022/04/13 03:24:58;;;;;;;81.30;37.60;;;;;;;0.70;64.89;99128.03;108279;1278;22562;-76
2022/04/13 03:27:26;;;;;;;76.60;35.70;;;;;;;0.66;64.67;99130.31;108320;1278;22576;-76
2022/04/13 03:29:53;;;;;;;75.90;34.60;;;;;;;0.62;64.81;99134.52;108282;1277;22552;-76
2022/04/13 03:32:20;;;;;;;71.30;35.60;;;;;;;0.58;64.59;99138.00;108272;1278;26958;-76
2022/04/13 03:34:47;;;;;;;63.00;32.50;;;;;;;0.57;64.62;99140.07;108276;1278;22630;-76
2022/04/13 03:37:14;;;;;;;58.80;31.00;;;;;;;0.56;65.11;99143.34;108267;1277;22546;-76
2022/04/13 03:39:41;;;;;;;54.40;26.00;;;;;;;0.54;65.61;99138.75;108283;1278;22548;-76
2022/04/13 03:42:09;;;;;;;55.50;29.10;;;;;;;0.50;65.93;99139.67;108336;1278;23879;-76
2022/04/13 03:44:36;;;;;;;56.80;27.10;;;;;;;0.48;65.70;99137.98;108292;1277;22574;-76
2022/04/13 03:47:03;;;;;;;56.20;26.60;;;;;;;0.46;65.73;99140.08;108271;1277;22575;-76
2022/04/13 03:49:30;;;;;;;66.90;31.20;;;;;;;0.43;65.51;99140.83;108301;1277;22695;-76
2022/04/13 03:51:57;;;;;;;69.60;32.40;;;;;;;0.40;65.49;99136.92;108294;1277;24442;-78
2022/04/13 03:54:24;;;;;;;70.70;33.40;;;;;;;0.37;65.42;99138.16;108306;1277;22536;-77
2022/04/13 03:56:53;;;;;;;55.40;30.20;;;;;;;0.35;65.38;99141.81;108296;1278;22569;-77
2022/04/13 03:59:22;;;;;;;58.90;30.60;;;;;;;0.32;65.38;99137.05;108303;1277;22528;-77
2022/04/13 04:01:49;;;;;;;53.80;31.10;;;;;;;0.34;65.26;99134.97;108325;1277;22568;-77
2022/04/13 04:04:16;;;;;;;58.10;30.30;;;;;;;0.36;65.68;99137.15;108305;1278;25446;-76
2022/04/13 04:06:43;;;;;;;61.50;29.40;;;;;;;0.36;66.44;99140.06;108283;1278;22616;-77
2022/04/13 04:09:10;;;;;;;70.50;34.40;;;;;;;0.36;66.62;99137.67;108273;1277;22684;-77
2022/04/13 04:11:38;;;;;;;75.90;35.70;;;;;;;0.37;66.61;99140.21;108280;1277;25484;-77
2022/04/13 04:14:05;;;;;;;78.90;34.50;;;;;;;0.39;66.16;99142.23;108279;1277;22654;-77
2022/04/13 04:16:32;;;;;;;74.80;34.60;;;;;;;0.40;66.09;99141.20;108265;1277;25458;-77
2022/04/13 04:18:59;;;;;;;77.20;35.00;;;;;;;0.42;66.05;99145.30;108275;1277;24282;-77
2022/04/13 04:21:26;;;;;;;71.90;34.90;;;;;;;0.42;65.96;99145.30;108320;1278;22630;-77
2022/04/13 04:23:53;;;;;;;70.60;34.00;;;;;;;0.43;65.55;99147.17;108284;1277;22556;-77
2022/04/13 04:26:21;;;;;;;61.70;33.50;;;;;;;0.44;65.41;99150.07;108321;1277;22569;-77
2022/04/13 04:28:48;;;;;;;68.40;34.60;;;;;;;0.46;65.30;99152.25;108292;1277;22582;-75
2022/04/13 04:31:49;;;;;;;308.90;110.90;;;;;;;0.53;65.66;99151.78;108266;1277;24202;-75
2022/04/13 04:34:05;;;;;;;138.80;62.50;;;;;;;0.62;66.43;99155.94;108292;1278;22617;-75
2022/04/13 04:36:32;;;;;;;207.60;68.20;;;;;;;0.67;67.15;99157.05;108281;1278;22555;-75
2022/04/13 04:38:59;;;;;;;91.80;38.90;;;;;;;0.71;67.21;99161.59;108302;1278;22563;-75
2022/04/13 04:41:26;;;;;;;80.80;35.90;;;;;;;0.76;67.05;99162.88;108298;1277;25527;-75
2022/04/13 04:43:53;;;;;;;112.20;43.30;;;;;;;0.83;66.86;99164.31;108260;1277;22540;-75
2022/04/13 04:46:20;;;;;;;97.20;39.30;;;;;;;0.91;66.71;99167.92;108294;1278;22588;-75
2022/04/13 04:48:47;;;;;;;78.50;32.90;;;;;;;1.03;66.47;99169.94;108289;1278;24388;-75
2022/04/13 04:51:15;;;;;;;70.90;31.80;;;;;;;1.21;66.41;99170.13;108280;1277;22544;-75
2022/04/13 04:53:42;;;;;;;60.60;29.50;;;;;;;1.40;66.67;99164.77;108060;1277;22556;-75
2022/04/13 04:56:10;;;;;;;63.30;28.90;;;;;;;1.57;66.93;99168.38;108060;1278;25348;-75
2022/04/13 04:58:37;;;;;;;64.30;28.70;;;;;;;1.76;66.80;99170.39;108043;1277;24445;-75
2022/04/13 05:01:04;;;;;;;67.00;32.50;;;;;;;1.97;66.62;99169.95;108027;1278;22553;-75
2022/04/13 05:03:32;;;;;;;67.60;32.20;;;;;;;2.22;66.60;99167.98;108066;1278;22695;-76
2022/04/13 05:05:59;;;;;;;61.30;31.10;;;;;;;2.54;66.81;99168.94;108042;1277;22575;-76
2022/04/13 05:08:26;;;;;;;62.00;32.30;;;;;;;2.90;67.24;99174.23;108034;1277;22615;-76
2022/04/13 05:10:53;;;;;;;54.00;28.40;;;;;;;3.27;67.11;99179.29;108034;1277;22632;-76
2022/04/13 05:13:21;;;;;;;48.30;25.00;;;;;;;3.64;66.95;99174.95;108044;1278;26339;-77
2022/04/13 05:15:48;;;;;;;43.40;23.60;;;;;;;4.02;66.47;99176.45;108010;1278;22556;-77
2022/04/13 05:18:15;;;;;;;43.10;22.00;;;;;;;4.37;65.51;99180.38;108000;1277;22652;-77
2022/04/13 05:20:42;;;;;;;41.50;24.20;;;;;;;4.69;64.37;99179.67;108051;1277;22703;-76
2022/04/13 05:23:09;;;;;;;58.50;31.30;;;;;;;4.96;63.22;99178.61;108012;1278;22878;-77
2022/04/13 05:25:36;;;;;;;52.80;26.30;;;;;;;5.14;62.08;99180.22;108038;1278;22976;-77
2022/04/13 05:28:04;;;;;;;53.50;26.20;;;;;;;5.32;61.03;99182.36;108029;1277;22530;-77
2022/04/13 05:30:31;;;;;;;48.10;25.70;;;;;;;5.45;59.95;99181.90;108045;1277;22590;-76
2022/04/13 05:32:58;;;;;;;47.30;27.20;;;;;;;5.55;59.56;99186.88;108039;1278;22648;-76
2022/04/13 05:35:26;;;;;;;55.40;27.90;;;;;;;5.67;59.30;99190.59;108042;1277;22710;-76
2022/04/13 05:37:53;;;;;;;62.60;31.40;;;;;;;5.76;59.04;99195.27;108054;1278;22634;-76
2022/04/13 05:40:22;;;;;;;50.80;29.40;;;;;;;5.84;58.12;99192.56;108029;1278;24290;-76
2022/04/13 05:42:53;;;;;;;36.40;22.70;;;;;;;5.97;57.58;99194.88;108039;1277;24283;-76
2022/04/13 05:45:21;;;;;;;38.70;20.90;;;;;;;6.07;57.26;99193.13;108025;1277;22575;-76
2022/04/13 05:47:48;;;;;;;36.80;21.40;;;;;;;6.20;56.81;99195.73;108023;1277;22751;-76
2022/04/13 05:50:15;;;;;;;28.00;17.90;;;;;;;6.30;55.88;99191.68;108018;1279;23195;-76
2022/04/13 05:52:43;;;;;;;34.10;18.80;;;;;;;6.42;55.58;99192.98;108046;1278;22620;-76
2022/04/13 05:55:11;;;;;;;37.00;18.80;;;;;;;6.55;55.19;99199.91;108062;1278;22559;-76
2022/04/13 05:57:39;;;;;;;36.60;18.60;;;;;;;6.66;54.87;99201.52;108042;1277;22579;-76
2022/04/13 06:00:10;;;;;;;39.20;19.30;;;;;;;6.77;55.03;99199.67;108017;1277;22559;-76
2022/04/13 06:02:39;;;;;;;35.50;18.40;;;;;;;6.88;54.86;99205.64;108050;1278;24658;-75
2022/04/13 06:05:08;;;;;;;32.00;17.30;;;;;;;6.99;54.65;99211.40;108051;1278;23064;-75
2022/04/13 06:07:35;;;;;;;32.30;16.60;;;;;;;7.10;54.41;99211.80;108032;1278;22572;-78
2022/04/13 06:10:04;;;;;;;26.30;14.90;;;;;;;7.22;53.88;99213.57;108104;1278;22719;-78
2022/04/13 06:12:32;;;;;;;29.30;13.60;;;;;;;7.34;53.78;99215.13;108070;1278;22591;-76
2022/04/13 06:15:03;;;;;;;23.60;14.50;;;;;;;7.45;53.49;99211.88;108257;1278;22694;-77
2022/04/13 06:17:30;;;;;;;30.60;16.90;;;;;;;7.58;53.24;99209.92;107999;1278;22805;-76
2022/04/13 06:19:58;;;;;;;28.60;14.90;;;;;;;7.67;52.91;99208.14;108038;1277;22896;-76
2022/04/13 06:22:25;;;;;;;23.40;12.90;;;;;;;7.76;52.01;99209.83;108033;1277;22549;-76
2022/04/13 06:24:52;;;;;;;29.00;15.50;;;;;;;7.85;51.75;99210.25;108063;1278;22548;-76
2022/04/13 06:27:20;;;;;;;27.30;15.60;;;;;;;7.95;51.42;99212.62;108029;1277;25279;-76
2022/04/13 06:29:47;;;;;;;25.70;15.50;;;;;;;8.06;51.64;99212.12;108029;1277;22634;-76
2022/04/13 06:32:14;;;;;;;25.70;12.80;;;;;;;8.17;50.80;99209.17;108048;1277;22531;-76
2022/04/13 06:34:42;;;;;;;31.00;19.30;;;;;;;8.26;49.72;99210.48;108034;1277;25169;-76
2022/04/13 06:37:09;;;;;;;31.30;18.40;;;;;;;8.32;48.95;99209.90;108034;1277;22617;-76
2022/04/13 06:39:36;;;;;;;103.50;55.90;;;;;;;8.37;48.77;99216.77;108125;1277;22577;-75
2022/04/13 06:42:03;;;;;;;52.50;31.00;;;;;;;8.47;49.34;99217.69;108063;1277;23187;-75
2022/04/13 06:44:30;;;;;;;36.20;21.20;;;;;;;8.57;48.28;99220.16;108038;1277;22617;-75
2022/04/13 06:46:59;;;;;;;25.90;15.00;;;;;;;8.66;48.01;99222.34;108024;1278;22574;-75
2022/04/13 06:49:26;;;;;;;26.90;14.00;;;;;;;8.74;48.22;99226.13;108007;1278;22564;-75
2022/04/13 06:51:53;;;;;;;19.50;11.30;;;;;;;8.83;47.64;99225.69;108026;1278;22650;-75
2022/04/13 06:54:20;;;;;;;23.40;12.90;;;;;;;8.86;47.04;99229.69;108041;1278;22579;-75
2022/04/13 06:56:47;;;;;;;21.00;11.30;;;;;;;8.93;46.67;99229.35;108067;1277;22615;-75
2022/04/13 06:59:14;;;;;;;21.30;12.80;;;;;;;8.99;46.43;99233.55;108013;1278;22675;-77
2022/04/13 07:01:41;;;;;;;20.60;12.00;;;;;;;9.08;45.55;99238.33;108011;1279;23291;-78
2022/04/13 07:04:08;;;;;;;22.00;12.70;;;;;;;9.13;45.48;99243.11;108039;1277;22759;-77
2022/04/13 07:06:35;;;;;;;19.10;12.50;;;;;;;9.19;45.84;99248.89;108059;1277;22546;-77
2022/04/13 07:09:02;;;;;;;27.50;13.10;;;;;;;9.28;45.39;99253.64;108052;1278;22543;-77
2022/04/13 07:11:29;;;;;;;23.10;12.50;;;;;;;9.41;44.90;99256.32;108023;1277;22557;-78
2022/04/13 07:13:57;;;;;;;18.90;12.30;;;;;;;9.54;44.87;99258.94;108023;1277;22581;-78
2022/04/13 07:16:24;;;;;;;18.20;10.70;;;;;;;9.69;45.31;99259.74;108022;1277;22596;-78
2022/04/13 07:18:51;;;;;;;19.00;11.20;;;;;;;9.81;44.91;99258.59;108017;1278;22583;-78
2022/04/13 07:21:18;;;;;;;22.50;12.20;;;;;;;9.87;43.64;99260.39;108029;1278;22648;-78
2022/04/13 07:23:45;;;;;;;20.10;13.10;;;;;;;9.90;43.85;99260.20;108097;1277;22581;-78
2022/04/13 07:26:12;;;;;;;18.40;12.20;;;;;;;9.94;43.59;99263.12;108306;1278;22708;-80
2022/04/13 07:28:39;;;;;;;21.30;12.40;;;;;;;9.93;43.81;99262.51;108286;1277;22560;-78
2022/04/13 07:31:06;;;;;;;19.90;11.50;;;;;;;9.97;44.47;99261.38;108284;1277;22550;-79
2022/04/13 07:33:34;;;;;;;17.50;10.90;;;;;;;10.04;44.22;99258.60;108283;1278;22633;-78
2022/04/13 07:36:01;;;;;;;22.10;11.20;;;;;;;10.12;44.19;99261.64;108274;1277;24226;-78
2022/04/13 07:38:28;;;;;;;18.70;11.20;;;;;;;10.19;43.89;99258.86;108288;1277;22636;-78
2022/04/13 07:40:58;;;;;;;17.60;10.90;;;;;;;10.27;43.19;99257.25;108307;1277;22694;-78
2022/04/13 07:43:25;;;;;;;20.70;10.60;;;;;;;10.31;42.78;99258.93;108293;1278;22645;-78
2022/04/13 07:45:52;;;;;;;19.20;12.00;;;;;;;10.34;42.57;99254.92;108283;1277;22709;-80
2022/04/13 07:48:19;;;;;;;20.30;10.90;;;;;;;10.37;42.69;99250.59;108292;1278;22593;-78
2022/04/13 07:50:47;;;;;;;16.10;10.40;;;;;;;10.45;43.01;99252.04;108302;1277;22543;-77
2022/04/13 07:53:14;;;;;;;17.80;10.30;;;;;;;10.55;42.45;99253.58;108312;1277;22566;-77
2022/04/13 07:55:42;;;;;;;16.70;9.60;;;;;;;10.63;42.79;99251.23;108334;1277;24282;-77
2022/04/13 07:58:09;;;;;;;14.70;9.30;;;;;;;10.74;42.72;99248.52;108315;1277;23929;-78
2022/04/13 08:00:36;;;;;;;18.80;10.00;;;;;;;10.83;42.14;99250.08;108310;1277;22551;-78
2022/04/13 08:03:04;;;;;;;16.20;9.60;;;;;;;10.90;42.13;99248.30;108308;1277;22564;-78
2022/04/13 08:05:32;;;;;;;19.00;10.30;;;;;;;10.96;42.20;99246.59;108327;1277;22592;-78
2022/04/13 08:07:59;;;;;;;16.00;8.40;;;;;;;11.03;42.17;99247.92;108306;1277;24255;-79
2022/04/13 08:10:26;;;;;;;15.60;8.70;;;;;;;11.13;41.85;99247.68;108335;1277;22654;-78
2022/04/13 08:12:53;;;;;;;16.10;8.90;;;;;;;11.18;41.60;99242.85;108358;1277;22730;-78
2022/04/13 08:15:21;;;;;;;15.90;9.00;;;;;;;11.25;41.06;99247.66;108341;1277;22815;-78
2022/04/13 08:17:48;;;;;;;16.60;9.00;;;;;;;11.31;40.66;99247.50;108310;1277;22541;-77
2022/04/13 08:20:15;;;;;;;18.70;9.90;;;;;;;11.34;40.53;99246.45;108312;1277;22620;-77
2022/04/13 08:22:44;;;;;;;17.30;9.40;;;;;;;11.35;40.93;99243.98;108333;1277;22579;-79
2022/04/13 08:25:12;;;;;;;13.60;8.50;;;;;;;11.41;40.93;99242.22;108310;1277;22559;-78
2022/04/13 08:27:39;;;;;;;11.50;7.50;;;;;;;11.48;40.85;99236.91;108313;1277;22818;-79
2022/04/13 08:30:07;;;;;;;16.10;9.60;;;;;;;11.56;40.41;99232.92;108310;1277;22704;-77
2022/04/13 08:32:36;;;;;;;17.00;9.60;;;;;;;11.62;40.49;99230.16;108320;1277;22554;-77
2022/04/13 08:35:05;;;;;;;15.30;9.00;;;;;;;11.65;40.59;99230.96;108331;1277;22620;-77
2022/04/13 08:37:35;;;;;;;17.20;7.90;;;;;;;11.73;39.99;99233.53;108320;1277;22639;-78
2022/04/13 08:40:04;;;;;;;15.50;8.60;;;;;;;11.80;39.66;99229.06;108335;1277;22554;-77
2022/04/13 08:42:44;;;;;;;14.60;8.20;;;;;;;11.88;40.07;99231.41;108336;1277;22551;-81
2022/04/13 08:45:28;;;;;;;12.10;7.40;;;;;;;11.97;39.57;99232.20;108280;1277;25458;-76
2022/04/13 08:47:59;;;;;;;11.10;7.30;;;;;;;12.05;39.50;99232.95;108334;1277;22601;-75
2022/04/13 08:50:29;;;;;;;15.60;9.00;;;;;;;12.13;39.33;99234.19;108333;1277;22579;-77
2022/04/13 08:53:02;;;;;;;15.90;8.20;;;;;;;12.19;39.16;99228.58;108290;1277;25376;-79
2022/04/13 08:55:31;;;;;;;13.70;8.20;;;;;;;12.27;38.20;99226.89;108097;1277;22616;-77
2022/04/13 08:58:34;;;;;;;14.00;8.20;;;;;;;12.40;39.18;99230.44;108260;1277;22638;-77
2022/04/13 09:01:09;;;;;;;19.60;7.70;;;;;;;12.54;38.96;99225.64;108089;1277;22713;-77
2022/04/13 09:03:43;;;;;;;13.50;7.20;;;;;;;12.64;38.88;99224.87;108109;1277;22559;-77
2022/04/13 09:06:11;;;;;;;12.90;8.60;;;;;;;12.75;39.16;99225.88;108142;1277;22720;-78
2022/04/13 09:08:44;;;;;;;15.40;8.20;;;;;;;12.85;38.81;99225.92;108072;1277;22630;-77
2022/04/13 09:11:13;;;;;;;15.00;8.00;;;;;;;12.94;38.55;99220.24;108106;1277;24181;-76
2022/04/13 09:13:42;;;;;;;13.90;8.20;;;;;;;13.05;38.60;99220.09;108080;1277;25388;-76
2022/04/13 09:16:10;;;;;;;11.20;7.70;;;;;;;13.15;38.32;99216.45;108084;1277;22558;-76
2022/04/13 09:18:37;;;;;;;13.80;8.00;;;;;;;13.24;38.10;99222.67;108109;1277;22573;-78
2022/04/13 09:21:04;;;;;;;12.60;7.30;;;;;;;13.27;37.89;99221.59;108061;1277;22559;-79
2022/04/13 09:23:31;;;;;;;15.40;8.80;;;;;;;13.32;37.66;99213.22;108027;1277;22525;-79
2022/04/13 09:25:59;;;;;;;16.90;8.20;;;;;;;13.36;37.11;99215.71;108041;1277;22601;-79
2022/04/13 09:28:26;;;;;;;13.90;8.10;;;;;;;13.46;37.46;99213.48;108043;1277;22607;-80
2022/04/13 09:30:56;;;;;;;14.80;7.70;;;;;;;13.58;37.90;99211.75;108064;1277;22680;-81
2022/04/13 09:33:25;;;;;;;14.00;7.60;;;;;;;13.68;37.11;99211.67;108074;1277;22720;-79
2022/04/13 09:35:53;;;;;;;13.90;7.50;;;;;;;13.76;37.65;99204.42;108077;1277;23455;-79
2022/04/13 09:38:21;;;;;;;17.30;8.90;;;;;;;13.75;36.81;99205.16;108044;1277;22623;-78
2022/04/13 09:40:54;;;;;;;14.70;8.60;;;;;;;13.74;36.82;99203.55;108049;1277;22645;-79
2022/04/13 09:43:24;;;;;;;17.50;9.10;;;;;;;13.76;36.77;99202.54;108079;1277;22621;-79
2022/04/13 09:45:52;;;;;;;12.40;7.80;;;;;;;13.80;37.05;99205.56;108084;1277;22623;-77
2022/04/13 09:48:21;;;;;;;12.20;7.60;;;;;;;13.86;36.87;99199.37;108072;1277;22597;-76
2022/04/13 09:50:50;;;;;;;15.90;9.20;;;;;;;13.90;37.23;99196.78;108090;1277;22589;-74
2022/04/13 09:53:19;;;;;;;16.30;8.40;;;;;;;13.96;36.69;99198.27;108090;1278;22654;-74
2022/04/13 09:55:54;;;;;;;14.40;8.30;;;;;;;14.02;36.76;99198.26;108117;1277;22581;-75
2022/04/13 09:58:25;;;;;;;13.60;7.50;;;;;;;14.13;36.83;99194.52;108151;1277;22634;-77
2022/04/13 10:01:00;;;;;;;17.10;8.80;;;;;;;14.26;36.51;99194.08;108313;1277;23933;-75
2022/04/13 10:03:28;;;;;;;14.90;8.50;;;;;;;14.37;36.74;99191.54;108356;1277;22561;-76
2022/04/13 10:05:56;;;;;;;15.20;8.40;;;;;;;14.48;37.13;99193.39;108313;1277;22562;-74
2022/04/13 10:08:26;;;;;;;14.70;8.70;;;;;;;14.54;36.55;99188.94;108308;1277;22566;-75
2022/04/13 10:10:56;;;;;;;14.40;8.20;;;;;;;14.55;36.18;99190.08;108361;1277;24236;-75
2022/04/13 10:13:43;;;;;;;13.40;8.60;;;;;;;14.56;36.05;99185.77;108376;1277;22570;-75
2022/04/13 10:16:12;;;;;;;15.90;7.90;;;;;;;14.60;36.21;99185.64;108369;1277;22552;-75
2022/04/13 10:19:00;;;;;;;17.40;8.80;;;;;;;14.66;36.27;99185.42;108323;1277;22634;-75
2022/04/13 10:21:45;;;;;;;13.40;7.80;;;;;;;14.78;36.56;99184.70;108359;1277;22563;-75
2022/04/13 10:24:19;;;;;;;14.60;9.00;;;;;;;14.82;35.84;99184.73;108352;1277;22574;-76
2022/04/13 10:27:07;;;;;;;16.30;8.80;;;;;;;14.79;36.15;99184.80;108317;1277;22657;-75
2022/04/13 10:29:37;;;;;;;14.40;9.50;;;;;;;14.80;35.82;99184.92;108333;1277;22552;-75
2022/04/13 10:32:11;;;;;;;17.50;9.10;;;;;;;14.82;35.62;99182.65;108329;1277;22588;-75
2022/04/13 10:34:47;;;;;;;16.60;8.20;;;;;;;14.81;35.66;99178.86;108346;1277;23260;-76
2022/04/13 10:37:20;;;;;;;15.90;8.60;;;;;;;14.83;36.08;99177.14;108326;1277;22652;-75
2022/04/13 10:39:48;;;;;;;17.80;9.00;;;;;;;14.87;36.28;99175.64;108355;1277;22584;-76
2022/04/13 10:42:19;;;;;;;14.90;8.80;;;;;;;14.90;36.09;99169.94;108382;1277;22539;-75
2022/04/13 10:44:53;;;;;;;13.70;8.30;;;;;;;15.00;35.50;99170.98;108348;1277;22560;-75
2022/04/13 10:47:56;;;;;;;14.40;8.00;;;;;;;15.09;35.36;99171.56;108196;1277;22639;-75
2022/04/13 10:50:33;;;;;;;14.70;9.00;;;;;;;15.17;35.36;99172.66;108066;1277;25270;-75
2022/04/13 10:53:53;;;;;;;13.40;8.20;;;;;;;15.25;35.31;99172.25;108057;1277;22833;-74
2022/04/13 10:56:26;;;;;;;13.30;7.90;;;;;;;15.28;35.00;99167.98;107224;1285;22572;-74
2022/04/13 10:58:56;;;;;;;13.90;7.10;;;;;;;15.29;34.39;99166.45;107173;1285;22583;-73
2022/04/13 11:01:25;;;;;;;16.10;7.60;;;;;;;15.38;35.02;99167.54;107214;1285;22560;-74
2022/04/13 11:03:55;;;;;;;15.40;7.60;;;;;;;15.47;34.01;99172.01;107242;1285;22621;-75
2022/04/13 11:06:23;;;;;;;13.00;7.40;;;;;;;15.51;34.20;99169.90;107319;1285;22569;-74
2022/04/13 11:09:01;;;;;;;16.50;7.50;;;;;;;15.53;33.36;99168.36;107367;1285;25357;-74
2022/04/13 11:11:31;;;;;;;15.40;8.40;;;;;;;15.53;32.30;99170.47;107434;1285;22565;-74
2022/04/13 11:13:58;;;;;;;13.40;7.80;;;;;;;15.57;33.22;99169.66;107467;1285;25473;-74
2022/04/13 11:16:29;;;;;;;17.10;8.50;;;;;;;15.59;33.21;99170.36;107448;1285;22534;-74
2022/04/13 11:19:05;;;;;;;14.30;8.00;;;;;;;15.65;33.54;99173.70;107472;1284;22569;-74
2022/04/13 11:21:37;;;;;;;14.10;7.80;;;;;;;15.71;32.31;99170.27;107480;1285;22583;-77
2022/04/13 11:24:04;;;;;;;13.70;8.60;;;;;;;15.75;33.17;99169.80;107479;1285;22774;-74